航空気象通報

ウインドサーファーのための航空気象通報による風予報です。

4/23-24の航空気象通報(国内、海外)

2008年04月23日 23時33分29秒 | TAF
羽田空港
TAF RJTT 230842Z 231812 18018KT 8000 -SHRA FEW008 SCT015 BKN030
TEMPO 0006 19022G34KT 4000 SHRA BR
TEMPO 0609 19020G30KT
日本時間24日03-21時:180度から18ノットの風

但し、09-15時:一時、190度から22ノット、突風34ノット、
但し、15-18時:一時、190度から20ノット、突風30ノット

那覇空港
TAF ROAH 230843Z 231812 36020KT 9999 FEW020
TEMPO 1821 36024G34KT
日本時間24日03-21時:360度から20ノットの風
但し、03-06時:一時、360度から24ノット、突風34ノット


マウイのカフルイ空港
PHOG 231135Z 231212 30003KT P6SM SKC
FM1400 12004KT P6SM SKC
FM1900 05013KT P6SM FEW060
FM2300 02014G20KT P6SM SCT060
FM0500 04010KT P6SM FEW035
FM0800 11005KT P6SM SKC
ハワイ時間23日02-04時:300度から3ノットの風
04-09時:120度から4ノットの風
09-13時:050度から13ノットの風
13-19時:020度から14ノット、突風20ノット
19-22時:040度から10ノットの風
22時-24日02時:110度から5ノットの風


サイパン空港
PGSN 231143Z 231212 07010KT P6SM FEW020
マリアナ時間23日22時-24日22時:070度から10ノットの風

コメント